createdAt,value
2022-10-06T00:02:23.194Z,9.13
2022-10-06T00:04:52.423Z,9.19
2022-10-06T00:07:27.411Z,9.22
2022-10-06T00:09:56.090Z,9.25
2022-10-06T00:12:25.972Z,9.23
2022-10-06T00:14:54.467Z,9.33
2022-10-06T00:17:23.124Z,9.37
2022-10-06T00:19:52.156Z,9.45
2022-10-06T00:22:20.809Z,9.44
2022-10-06T00:24:49.438Z,9.49
2022-10-06T00:27:17.826Z,9.52
2022-10-06T00:29:47.740Z,9.59
2022-10-06T00:32:16.662Z,9.63
2022-10-06T00:34:45.383Z,9.55
2022-10-06T00:37:14.046Z,9.51
2022-10-06T00:39:43.499Z,9.49
2022-10-06T00:42:24.694Z,9.50
2022-10-06T00:44:54.940Z,9.60
2022-10-06T00:50:46.546Z,9.65
2022-10-06T00:53:16.404Z,9.73
2022-10-06T00:55:44.889Z,9.66
2022-10-06T00:58:15.494Z,9.73
2022-10-06T01:00:47.117Z,9.68
2022-10-06T01:03:22.957Z,9.70
2022-10-06T01:05:54.450Z,9.64
2022-10-06T01:08:25.105Z,9.67
2022-10-06T01:10:53.774Z,9.72
2022-10-06T01:13:22.977Z,9.77
2022-10-06T01:15:58.845Z,9.75
2022-10-06T01:18:57.280Z,9.73
2022-10-06T01:47:05.178Z,9.78
2022-10-06T01:49:38.753Z,9.79
2022-10-06T01:55:21.618Z,9.85
2022-10-06T01:57:52.487Z,9.93
2022-10-06T02:00:30.238Z,9.90
2022-10-06T02:03:11.266Z,9.93
2022-10-06T02:05:43.784Z,9.95
2022-10-06T02:08:14.974Z,9.98
2022-10-06T02:10:48.128Z,10.08
2022-10-06T02:13:22.919Z,10.20
2022-10-06T02:15:55.863Z,10.22
2022-10-06T02:18:24.593Z,10.20
2022-10-06T02:21:00.651Z,10.23
2022-10-06T02:23:33.379Z,10.24
2022-10-06T02:26:08.644Z,10.35
2022-10-06T02:28:37.708Z,10.35
2022-10-06T02:31:09.476Z,10.32
2022-10-06T02:33:39.269Z,10.27
2022-10-06T02:36:11.577Z,10.30
2022-10-06T02:38:41.827Z,10.36
2022-10-06T02:41:11.799Z,10.40
2022-10-06T02:43:41.270Z,10.35
2022-10-06T02:46:12.795Z,10.33
2022-10-06T02:48:46.837Z,10.35
2022-10-06T02:51:18.254Z,10.45
2022-10-06T02:53:49.850Z,10.47
2022-10-06T02:56:21.304Z,10.49
2022-10-06T02:58:51.265Z,10.46
2022-10-06T03:01:21.875Z,10.48
2022-10-06T03:03:50.526Z,10.51
2022-10-06T03:06:25.388Z,10.51
2022-10-06T03:09:12.926Z,10.45
2022-10-06T03:14:43.611Z,10.48
2022-10-06T03:17:26.053Z,10.42
2022-10-06T03:20:02.725Z,10.44
2022-10-06T03:22:53.430Z,10.43
2022-10-06T03:25:26.470Z,10.47
2022-10-06T03:28:17.858Z,10.40
2022-10-06T03:30:46.707Z,10.53
2022-10-06T03:33:15.201Z,10.57
2022-10-06T03:35:50.848Z,10.61
2022-10-06T03:38:23.330Z,10.60
2022-10-06T03:40:53.832Z,10.63
2022-10-06T03:43:22.353Z,10.65
2022-10-06T03:45:58.032Z,10.70
2022-10-06T03:48:27.245Z,10.64
2022-10-06T03:51:00.798Z,10.67
2022-10-06T03:53:33.843Z,10.63
2022-10-06T03:56:04.452Z,10.75
2022-10-06T03:58:42.200Z,10.76
2022-10-06T04:01:15.055Z,10.79
2022-10-06T04:03:44.595Z,10.81
2022-10-06T04:06:31.670Z,10.84
2022-10-06T04:09:23.631Z,10.83
2022-10-06T04:11:52.775Z,10.91
2022-10-06T04:14:21.309Z,10.97
2022-10-06T04:16:51.285Z,10.92
2022-10-06T04:19:19.983Z,10.96
2022-10-06T04:21:49.216Z,10.94
2022-10-06T04:24:19.134Z,11.04
2022-10-06T04:26:49.140Z,11.01
2022-10-06T04:29:17.986Z,11.04
2022-10-06T04:31:47.327Z,11.02
2022-10-06T04:34:15.686Z,11.02
2022-10-06T04:36:44.872Z,11.03
2022-10-06T04:39:14.278Z,11.08
2022-10-06T04:41:47.638Z,11.12
2022-10-06T04:44:16.382Z,11.14
2022-10-06T04:46:45.439Z,11.19
2022-10-06T04:49:19.587Z,11.19
2022-10-06T04:51:49.743Z,11.18
2022-10-06T04:54:18.783Z,11.17
2022-10-06T04:56:49.233Z,11.13
2022-10-06T04:59:17.840Z,11.11
2022-10-06T05:01:47.385Z,11.03
2022-10-06T05:05:10.868Z,10.93
2022-10-06T05:07:40.393Z,10.88
2022-10-06T05:10:09.695Z,10.76
2022-10-06T05:12:39.683Z,10.75
2022-10-06T05:15:10.727Z,10.71
2022-10-06T05:17:39.391Z,10.70
2022-10-06T05:20:11.166Z,10.79
2022-10-06T05:22:39.616Z,10.72
2022-10-06T05:25:08.596Z,10.68
2022-10-06T05:27:38.766Z,10.66
2022-10-06T05:30:07.861Z,10.73
2022-10-06T05:32:36.462Z,10.72
2022-10-06T05:35:07.285Z,10.77
2022-10-06T05:37:36.044Z,10.77
2022-10-06T05:40:05.364Z,10.80
2022-10-06T05:42:44.600Z,10.94
2022-10-06T05:45:14.829Z,10.94
2022-10-06T05:47:43.131Z,10.98
2022-10-06T05:50:11.755Z,11.01
2022-10-06T05:52:40.672Z,11.01
2022-10-06T05:55:10.523Z,10.93
2022-10-06T05:57:38.773Z,10.86
2022-10-06T06:00:09.679Z,10.75
2022-10-06T06:02:39.878Z,10.68
2022-10-06T06:05:10.085Z,10.67
2022-10-06T06:07:38.866Z,10.64
2022-10-06T06:10:07.975Z,10.66
2022-10-06T06:12:36.775Z,10.64
2022-10-06T06:15:23.134Z,10.57
2022-10-06T06:18:25.437Z,10.57
2022-10-06T06:20:59.332Z,10.60
2022-10-06T06:23:33.841Z,10.61
2022-10-06T06:26:04.516Z,10.68
2022-10-06T06:28:34.223Z,10.74
2022-10-06T06:31:07.451Z,10.73
2022-10-06T06:33:38.137Z,10.81
2022-10-06T06:36:15.043Z,10.87
2022-10-06T06:38:47.963Z,10.88
2022-10-06T06:41:17.941Z,10.98
2022-10-06T06:43:46.326Z,10.95
2022-10-06T06:46:17.414Z,10.90
2022-10-06T06:48:47.386Z,10.92
2022-10-06T06:51:17.607Z,11.03
2022-10-06T06:53:46.044Z,11.06
2022-10-06T06:56:15.121Z,11.10
2022-10-06T06:58:47.599Z,11.14
2022-10-06T07:01:18.201Z,11.21
2022-10-06T07:04:03.651Z,11.24
2022-10-06T07:06:36.895Z,11.34
2022-10-06T07:09:16.651Z,11.40
2022-10-06T07:11:52.932Z,11.46
2022-10-06T07:14:24.838Z,11.60
2022-10-06T07:17:10.663Z,11.59
2022-10-06T07:19:52.784Z,11.72
2022-10-06T07:22:42.850Z,11.65
2022-10-06T07:25:16.513Z,11.66
2022-10-06T07:27:52.406Z,11.73
2022-10-06T07:30:23.906Z,11.81
2022-10-06T07:32:54.755Z,11.88
2022-10-06T07:35:27.077Z,11.95
2022-10-06T07:38:08.201Z,12.04
2022-10-06T07:40:42.722Z,12.09
2022-10-06T07:43:20.672Z,12.21
2022-10-06T07:45:49.925Z,12.22
2022-10-06T07:48:20.459Z,12.23
2022-10-06T07:50:51.395Z,12.24
2022-10-06T07:53:22.079Z,12.19
2022-10-06T07:55:53.140Z,12.23
2022-10-06T07:58:24.285Z,12.26
2022-10-06T08:00:53.910Z,12.35
2022-10-06T08:03:23.674Z,12.33
2022-10-06T08:05:59.335Z,12.27
2022-10-06T08:08:32.956Z,12.34
2022-10-06T08:11:04.535Z,12.29
2022-10-06T08:13:33.383Z,12.33
2022-10-06T08:16:06.075Z,12.27
2022-10-06T08:18:46.024Z,12.29
2022-10-06T08:21:17.360Z,12.24
2022-10-06T08:23:48.938Z,12.21
2022-10-06T08:26:19.706Z,12.19
2022-10-06T08:28:50.012Z,12.13
2022-10-06T08:31:21.396Z,12.14
2022-10-06T08:33:50.811Z,12.08
2022-10-06T08:36:20.826Z,12.06
2022-10-06T08:38:51.409Z,12.10
2022-10-06T08:41:27.555Z,12.09
2022-10-06T08:44:02.140Z,12.12
2022-10-06T08:46:39.069Z,12.25
2022-10-06T08:49:12.140Z,12.26
2022-10-06T08:51:54.098Z,12.34
2022-10-06T08:54:30.843Z,12.40
2022-10-06T08:57:05.897Z,12.36
2022-10-06T08:59:36.869Z,12.42
2022-10-06T09:02:16.674Z,12.48
2022-10-06T09:04:45.518Z,12.66
2022-10-06T09:07:17.344Z,12.81
2022-10-06T09:10:03.247Z,13.01
2022-10-06T09:12:37.201Z,13.02
2022-10-06T09:15:21.724Z,13.02
2022-10-06T09:17:55.943Z,13.02
2022-10-06T09:20:31.577Z,13.20
2022-10-06T09:23:02.233Z,13.41
2022-10-06T09:25:33.021Z,13.58
2022-10-06T09:28:03.525Z,13.84
2022-10-06T09:30:32.463Z,13.98
2022-10-06T09:33:02.220Z,14.27
2022-10-06T09:35:32.470Z,14.31
2022-10-06T09:38:09.258Z,14.21
2022-10-06T09:40:49.181Z,14.14
2022-10-06T09:43:29.425Z,14.02
2022-10-06T09:46:18.604Z,13.95
2022-10-06T09:48:47.228Z,13.96
2022-10-06T09:51:17.360Z,13.87
2022-10-06T09:54:05.614Z,13.94
2022-10-06T09:56:36.545Z,14.01
2022-10-06T09:59:05.308Z,14.16
2022-10-06T10:01:34.365Z,14.05
2022-10-06T10:04:19.945Z,14.02
2022-10-06T10:06:49.867Z,13.88
2022-10-06T10:09:29.278Z,13.89
2022-10-06T10:12:28.276Z,14.08
2022-10-06T10:15:04.391Z,14.23
2022-10-06T10:17:44.637Z,14.40
2022-10-06T10:20:34.466Z,14.84
2022-10-06T10:23:07.409Z,15.22
2022-10-06T10:25:59.045Z,15.26
2022-10-06T10:29:04.678Z,15.32
2022-10-06T10:31:43.379Z,15.42
2022-10-06T10:34:25.139Z,15.65
2022-10-06T10:37:03.770Z,15.45
2022-10-06T10:39:39.680Z,15.28
2022-10-06T10:42:20.199Z,15.55
2022-10-06T10:44:56.936Z,15.67
2022-10-06T10:47:29.385Z,15.75
2022-10-06T10:50:04.483Z,15.80
2022-10-06T10:52:41.625Z,15.83
2022-10-06T10:55:27.271Z,15.83
2022-10-06T10:58:00.560Z,15.88
2022-10-06T11:00:35.527Z,15.93
2022-10-06T11:03:05.325Z,15.87
2022-10-06T11:05:51.861Z,15.69
2022-10-06T11:08:28.952Z,15.96
2022-10-06T11:11:00.709Z,15.94
2022-10-06T11:13:34.862Z,16.06
2022-10-06T11:16:37.520Z,16.62
2022-10-06T11:19:22.624Z,16.35
2022-10-06T11:21:59.526Z,16.25
2022-10-06T11:24:37.794Z,16.12
2022-10-06T11:27:23.978Z,16.11
2022-10-06T11:30:04.001Z,16.29
2022-10-06T11:32:46.667Z,16.49
2022-10-06T11:35:20.799Z,16.39
2022-10-06T11:37:57.532Z,16.39
2022-10-06T11:40:47.930Z,16.23
2022-10-06T11:43:24.490Z,16.09
2022-10-06T11:46:02.543Z,16.01
2022-10-06T11:48:35.277Z,16.02
2022-10-06T11:51:35.278Z,16.12
2022-10-06T11:54:04.022Z,16.23
2022-10-06T11:56:41.631Z,16.37
2022-10-06T11:59:24.959Z,16.38
2022-10-06T12:01:56.250Z,16.44
2022-10-06T12:04:28.252Z,16.45
2022-10-06T12:07:04.536Z,16.50
2022-10-06T12:09:41.533Z,16.53
2022-10-06T12:13:06.755Z,16.50
2022-10-06T12:19:07.131Z,17.26
2022-10-06T12:21:46.090Z,17.36
2022-10-06T12:24:37.084Z,17.03
2022-10-06T12:27:30.265Z,16.79
2022-10-06T12:30:05.299Z,16.86
2022-10-06T12:32:50.916Z,17.16
2022-10-06T12:35:41.273Z,17.15
2022-10-06T12:38:44.398Z,17.05
2022-10-06T12:41:14.177Z,16.88
2022-10-06T12:43:55.330Z,16.90
2022-10-06T12:46:45.101Z,16.73
2022-10-06T12:49:42.571Z,16.76
2022-10-06T12:52:36.840Z,16.72
2022-10-06T12:55:34.195Z,16.61
2022-10-06T12:58:03.155Z,16.87
2022-10-06T13:00:38.485Z,16.92
2022-10-06T13:03:10.166Z,16.90
2022-10-06T13:05:38.610Z,17.28
2022-10-06T13:08:21.176Z,17.59
2022-10-06T13:10:54.108Z,17.70
2022-10-06T13:13:25.096Z,17.99
2022-10-06T13:16:00.722Z,17.81
2022-10-06T13:18:32.075Z,17.68
2022-10-06T13:21:01.924Z,17.54
2022-10-06T13:23:31.592Z,17.58
2022-10-06T13:26:03.469Z,17.55
2022-10-06T13:28:47.818Z,17.29
2022-10-06T13:31:22.564Z,17.36
2022-10-06T13:33:55.896Z,17.30
2022-10-06T13:36:25.049Z,17.05
2022-10-06T13:38:53.890Z,16.91
2022-10-06T13:41:29.592Z,16.68
2022-10-06T13:44:01.397Z,16.49
2022-10-06T13:46:33.294Z,16.37
2022-10-06T13:49:06.423Z,16.24
2022-10-06T13:51:35.173Z,16.01
2022-10-06T13:54:08.338Z,15.74
2022-10-06T13:56:41.741Z,15.25
2022-10-06T13:59:28.141Z,14.99
2022-10-06T14:01:58.820Z,14.77
2022-10-06T14:05:04.121Z,14.49
2022-10-06T14:07:35.290Z,14.42
2022-10-06T14:10:07.093Z,14.46
2022-10-06T14:12:48.785Z,14.44
2022-10-06T14:15:26.414Z,14.53
2022-10-06T14:17:59.480Z,15.55
2022-10-06T14:20:58.415Z,16.20
2022-10-06T14:23:56.895Z,16.70
2022-10-06T14:26:35.449Z,17.36
2022-10-06T14:29:14.428Z,16.68
2022-10-06T14:31:44.424Z,16.19
2022-10-06T14:34:15.693Z,16.35
2022-10-06T14:36:47.156Z,18.59
2022-10-06T14:39:17.966Z,19.50
2022-10-06T14:41:47.015Z,19.36
2022-10-06T14:44:17.110Z,19.93
2022-10-06T14:46:49.630Z,18.70
2022-10-06T14:49:18.767Z,18.16
2022-10-06T14:51:47.824Z,17.97
2022-10-06T14:54:19.506Z,18.02
2022-10-06T14:56:53.670Z,18.42
2022-10-06T14:59:25.306Z,17.54
2022-10-06T15:01:54.428Z,16.80
2022-10-06T15:04:27.819Z,16.69
2022-10-06T15:07:14.567Z,16.86
2022-10-06T15:09:43.087Z,16.85
2022-10-06T15:12:11.460Z,17.54
2022-10-06T15:14:41.428Z,17.07
2022-10-06T15:17:09.884Z,16.89
2022-10-06T15:19:40.876Z,18.62
2022-10-06T15:22:10.406Z,18.08
2022-10-06T15:24:39.047Z,17.41
2022-10-06T15:27:25.387Z,17.16
2022-10-06T15:29:57.677Z,17.36
2022-10-06T15:32:26.648Z,16.82
2022-10-06T15:34:55.613Z,16.43
2022-10-06T15:37:24.086Z,16.22
2022-10-06T15:39:53.464Z,16.33
2022-10-06T15:42:24.654Z,16.32
2022-10-06T15:44:53.379Z,16.14
2022-10-06T15:47:24.015Z,16.10
2022-10-06T15:49:52.565Z,16.04
2022-10-06T15:52:20.973Z,15.96
2022-10-06T15:54:50.072Z,15.90
2022-10-06T15:57:21.160Z,15.84
2022-10-06T15:59:50.527Z,15.81
2022-10-06T16:02:20.591Z,15.76
2022-10-06T16:05:18.788Z,15.71
2022-10-06T16:07:49.269Z,15.62
2022-10-06T16:10:51.630Z,15.62
2022-10-06T16:13:27.283Z,15.70
2022-10-06T16:16:03.470Z,15.67
2022-10-06T16:18:39.913Z,15.81
2022-10-06T16:21:22.222Z,15.75
2022-10-06T16:24:17.738Z,15.68
2022-10-06T16:30:15.804Z,15.51
2022-10-06T16:33:06.782Z,15.53
2022-10-06T16:35:50.722Z,15.47
2022-10-06T16:38:40.282Z,15.41
2022-10-06T16:41:14.829Z,15.29
2022-10-06T16:43:48.507Z,15.09
2022-10-06T16:46:29.728Z,14.98
2022-10-06T16:49:03.749Z,14.91
2022-10-06T16:51:41.347Z,14.89
2022-10-06T16:54:16.095Z,14.93
2022-10-06T16:57:05.460Z,14.76
2022-10-06T16:59:46.880Z,14.54
2022-10-06T17:02:18.516Z,14.43
2022-10-06T17:05:02.112Z,14.39
2022-10-06T17:07:47.620Z,14.41
2022-10-06T17:10:21.230Z,14.48
2022-10-06T17:12:50.079Z,14.60
2022-10-06T17:15:18.642Z,14.69
2022-10-06T17:17:47.253Z,14.76
2022-10-06T17:20:17.200Z,14.82
2022-10-06T17:22:45.744Z,14.86
2022-10-06T17:25:14.508Z,14.88
2022-10-06T17:27:44.860Z,14.85
2022-10-06T17:30:15.643Z,14.84
2022-10-06T17:32:45.283Z,14.76
2022-10-06T17:35:14.268Z,14.72
2022-10-06T17:37:43.087Z,14.76
2022-10-06T17:40:11.881Z,14.80
2022-10-06T17:42:41.881Z,14.73
2022-10-06T17:45:12.868Z,14.77
2022-10-06T17:47:41.765Z,14.78
2022-10-06T17:50:11.393Z,14.77
2022-10-06T17:52:40.239Z,14.80
2022-10-06T17:55:10.794Z,14.75
2022-10-06T17:57:40.522Z,14.69
2022-10-06T18:00:12.408Z,14.71
2022-10-06T18:02:41.914Z,14.69
2022-10-06T18:05:12.290Z,14.65
2022-10-06T18:07:40.507Z,14.64
2022-10-06T18:10:26.902Z,14.68
2022-10-06T18:12:55.363Z,14.60
2022-10-06T18:15:27.379Z,14.56
2022-10-06T18:17:55.710Z,14.60
2022-10-06T18:20:30.223Z,14.57
2022-10-06T18:22:58.786Z,14.53
2022-10-06T18:25:28.356Z,14.47
2022-10-06T18:27:56.916Z,14.48
2022-10-06T18:30:29.533Z,14.51
2022-10-06T18:35:57.633Z,14.38
2022-10-06T18:36:14.351Z,14.31
2022-10-06T18:38:57.011Z,14.22
2022-10-06T18:41:39.887Z,14.22
2022-10-06T18:44:09.897Z,14.20
2022-10-06T18:46:57.630Z,14.18
2022-10-06T18:49:26.774Z,14.13
2022-10-06T18:51:58.445Z,14.11
2022-10-06T18:54:30.404Z,14.13
2022-10-06T18:57:01.081Z,14.16
2022-10-06T18:59:31.584Z,14.13
2022-10-06T19:02:02.436Z,14.11
2022-10-06T19:04:35.435Z,14.16
2022-10-06T19:07:04.120Z,14.11
2022-10-06T19:09:33.508Z,14.07
2022-10-06T19:12:02.111Z,13.97
2022-10-06T19:14:32.595Z,13.85
2022-10-06T19:17:04.374Z,13.81
2022-10-06T19:19:35.247Z,13.75
2022-10-06T19:22:05.877Z,13.76
2022-10-06T19:24:36.728Z,13.67
2022-10-06T19:27:11.926Z,13.64
2022-10-06T19:29:45.812Z,13.61
2022-10-06T19:32:17.954Z,13.58
2022-10-06T19:34:47.077Z,13.58
2022-10-06T19:37:16.934Z,13.56
2022-10-06T19:39:50.412Z,13.60
2022-10-06T19:42:38.554Z,13.60
2022-10-06T19:45:08.329Z,13.54
2022-10-06T19:47:38.939Z,13.52
2022-10-06T19:50:12.168Z,13.44
2022-10-06T19:52:41.392Z,13.57
2022-10-06T19:55:09.780Z,13.55
2022-10-06T19:57:38.252Z,13.56
2022-10-06T20:00:10.421Z,13.50
2022-10-06T20:02:42.763Z,13.54
2022-10-06T20:05:12.876Z,13.54
2022-10-06T20:07:41.891Z,13.59
2022-10-06T20:10:11.946Z,13.61
2022-10-06T20:12:42.520Z,13.57
2022-10-06T20:15:13.051Z,13.56
2022-10-06T20:17:43.720Z,13.61
2022-10-06T20:20:12.341Z,13.57
2022-10-06T20:22:40.695Z,13.61
2022-10-06T20:25:09.443Z,13.54
2022-10-06T20:27:38.307Z,13.54
2022-10-06T20:30:07.814Z,13.53
2022-10-06T20:32:39.046Z,13.58
2022-10-06T20:35:09.720Z,13.44
2022-10-06T20:37:42.182Z,13.46
2022-10-06T20:40:28.507Z,13.39
2022-10-06T20:42:59.310Z,13.39
2022-10-06T20:45:27.849Z,13.40
2022-10-06T20:48:00.433Z,13.44
2022-10-06T20:50:32.205Z,13.42
2022-10-06T20:53:00.733Z,13.42
2022-10-06T20:55:29.077Z,13.48
2022-10-06T20:57:59.106Z,13.47
2022-10-06T21:00:30.255Z,13.41
2022-10-06T21:03:01.358Z,13.39
2022-10-06T21:05:35.697Z,13.36
2022-10-06T21:08:06.276Z,13.37
2022-10-06T21:10:43.269Z,13.33
2022-10-06T21:13:17.111Z,13.32
2022-10-06T21:15:47.609Z,13.22
2022-10-06T21:18:17.920Z,13.20
2022-10-06T21:20:56.653Z,13.23
2022-10-06T21:23:30.599Z,13.28
2022-10-06T21:26:02.842Z,13.27
2022-10-06T21:28:32.476Z,13.24
2022-10-06T21:31:05.036Z,13.19
2022-10-06T21:33:41.013Z,13.20
2022-10-06T21:36:14.692Z,13.18
2022-10-06T21:38:48.281Z,13.24
2022-10-06T21:41:31.600Z,13.15
2022-10-06T21:44:01.849Z,13.10
2022-10-06T21:46:33.149Z,13.04
2022-10-06T21:49:04.540Z,13.08
2022-10-06T21:51:34.890Z,13.06
2022-10-06T21:54:03.859Z,13.07
2022-10-06T21:56:34.353Z,13.11
2022-10-06T21:59:16.960Z,13.11
2022-10-06T22:01:46.958Z,13.14
2022-10-06T22:04:16.243Z,13.15
2022-10-06T22:06:50.332Z,13.19
2022-10-06T22:09:21.331Z,13.18
2022-10-06T22:11:50.452Z,13.15
2022-10-06T22:14:20.605Z,13.12
2022-10-06T22:16:49.667Z,13.11
2022-10-06T22:19:18.891Z,13.08
2022-10-06T22:21:49.933Z,13.19
2022-10-06T22:24:20.679Z,13.11
2022-10-06T22:26:50.767Z,13.04
2022-10-06T22:29:23.135Z,13.05
2022-10-06T22:31:52.078Z,13.07
2022-10-06T22:34:22.161Z,13.02
2022-10-06T22:36:52.355Z,13.03
2022-10-06T22:39:21.022Z,13.07
2022-10-06T22:41:49.412Z,13.01
2022-10-06T22:44:17.858Z,13.08
2022-10-06T22:46:46.240Z,13.12
2022-10-06T22:49:15.044Z,13.09
2022-10-06T22:51:44.192Z,13.03
2022-10-06T22:54:19.138Z,13.02
2022-10-06T22:56:47.603Z,13.00
2022-10-06T22:59:16.317Z,12.98
2022-10-06T23:01:45.159Z,13.03
2022-10-06T23:04:13.846Z,13.02
2022-10-06T23:06:42.273Z,13.02
2022-10-06T23:09:11.268Z,13.07
2022-10-06T23:11:41.737Z,13.07
2022-10-06T23:14:11.039Z,13.00
2022-10-06T23:16:39.597Z,13.03
2022-10-06T23:19:08.041Z,12.96
2022-10-06T23:21:40.293Z,12.98
2022-10-06T23:24:09.283Z,13.08
2022-10-06T23:26:37.812Z,13.12
2022-10-06T23:29:07.691Z,13.20
2022-10-06T23:31:36.276Z,13.10
2022-10-06T23:34:04.746Z,13.12
2022-10-06T23:36:33.491Z,13.14
2022-10-06T23:39:02.654Z,13.22
2022-10-06T23:41:31.160Z,13.18
2022-10-06T23:43:59.714Z,13.21
2022-10-06T23:46:29.480Z,13.20
2022-10-06T23:48:57.974Z,13.23
2022-10-06T23:51:26.680Z,13.25
2022-10-06T23:53:54.983Z,13.20
2022-10-06T23:56:23.353Z,13.22
2022-10-06T23:58:52.025Z,13.27
